sensor_id;sensor_type;location;lat;lon;timestamp;P1;durP1;ratioP1;P2;durP2;ratioP2
47749;SDS011;49810;48.160;10.812;2022-11-14T00:00:31;91.90;;;23.17;;
47749;SDS011;49810;48.160;10.812;2022-11-14T00:03:18;88.63;;;22.20;;
47749;SDS011;49810;48.160;10.812;2022-11-14T00:06:05;68.40;;;22.13;;
47749;SDS011;49810;48.160;10.812;2022-11-14T00:08:55;105.82;;;25.00;;
47749;SDS011;49810;48.160;10.812;2022-11-14T00:11:41;92.53;;;24.20;;
47749;SDS011;49810;48.160;10.812;2022-11-14T00:14:28;90.30;;;23.80;;
47749;SDS011;49810;48.160;10.812;2022-11-14T00:17:15;80.55;;;23.98;;
47749;SDS011;49810;48.160;10.812;2022-11-14T00:20:02;67.18;;;22.40;;
47749;SDS011;49810;48.160;10.812;2022-11-14T00:22:50;83.80;;;22.73;;
47749;SDS011;49810;48.160;10.812;2022-11-14T00:25:38;65.68;;;21.27;;
47749;SDS011;49810;48.160;10.812;2022-11-14T00:28:25;107.35;;;23.60;;
47749;SDS011;49810;48.160;10.812;2022-11-14T00:31:12;87.60;;;23.33;;
47749;SDS011;49810;48.160;10.812;2022-11-14T00:33:58;61.28;;;21.13;;
47749;SDS011;49810;48.160;10.812;2022-11-14T00:36:45;50.72;;;20.60;;
47749;SDS011;49810;48.160;10.812;2022-11-14T00:39:31;58.28;;;21.08;;
47749;SDS011;49810;48.160;10.812;2022-11-14T00:42:20;61.42;;;20.40;;
47749;SDS011;49810;48.160;10.812;2022-11-14T00:45:06;45.90;;;20.33;;
47749;SDS011;49810;48.160;10.812;2022-11-14T00:47:53;67.70;;;20.38;;
47749;SDS011;49810;48.160;10.812;2022-11-14T00:50:40;58.83;;;19.60;;
47749;SDS011;49810;48.160;10.812;2022-11-14T00:53:28;41.10;;;20.50;;
47749;SDS011;49810;48.160;10.812;2022-11-14T00:56:14;37.15;;;18.77;;
47749;SDS011;49810;48.160;10.812;2022-11-14T00:59:02;76.57;;;21.90;;
47749;SDS011;49810;48.160;10.812;2022-11-14T01:01:49;101.22;;;20.52;;
47749;SDS011;49810;48.160;10.812;2022-11-14T01:04:41;26.02;;;16.73;;
47749;SDS011;49810;48.160;10.812;2022-11-14T01:07:28;63.28;;;18.98;;
47749;SDS011;49810;48.160;10.812;2022-11-14T01:10:15;59.83;;;19.30;;
47749;SDS011;49810;48.160;10.812;2022-11-14T01:13:02;27.77;;;16.48;;
47749;SDS011;49810;48.160;10.812;2022-11-14T01:15:50;27.65;;;17.20;;
47749;SDS011;49810;48.160;10.812;2022-11-14T01:18:38;31.02;;;19.60;;
47749;SDS011;49810;48.160;10.812;2022-11-14T01:21:26;29.88;;;17.38;;
47749;SDS011;49810;48.160;10.812;2022-11-14T01:24:13;47.05;;;20.33;;
47749;SDS011;49810;48.160;10.812;2022-11-14T01:26:59;54.95;;;19.90;;
47749;SDS011;49810;48.160;10.812;2022-11-14T01:29:46;49.03;;;20.10;;
47749;SDS011;49810;48.160;10.812;2022-11-14T01:32:34;44.47;;;19.92;;
47749;SDS011;49810;48.160;10.812;2022-11-14T01:35:21;34.50;;;18.88;;
47749;SDS011;49810;48.160;10.812;2022-11-14T01:38:09;38.10;;;18.65;;
47749;SDS011;49810;48.160;10.812;2022-11-14T01:40:58;52.85;;;18.23;;
47749;SDS011;49810;48.160;10.812;2022-11-14T01:43:45;43.78;;;16.35;;
47749;SDS011;49810;48.160;10.812;2022-11-14T01:46:33;43.25;;;17.00;;
47749;SDS011;49810;48.160;10.812;2022-11-14T01:49:24;38.00;;;15.52;;
47749;SDS011;49810;48.160;10.812;2022-11-14T01:52:15;43.70;;;15.48;;
47749;SDS011;49810;48.160;10.812;2022-11-14T01:55:06;37.40;;;16.80;;
47749;SDS011;49810;48.160;10.812;2022-11-14T01:57:54;48.85;;;16.98;;
47749;SDS011;49810;48.160;10.812;2022-11-14T02:00:43;41.17;;;17.73;;
47749;SDS011;49810;48.160;10.812;2022-11-14T02:03:29;52.25;;;17.80;;
47749;SDS011;49810;48.160;10.812;2022-11-14T02:06:21;61.22;;;19.40;;
47749;SDS011;49810;48.160;10.812;2022-11-14T02:09:10;43.35;;;18.88;;
47749;SDS011;49810;48.160;10.812;2022-11-14T02:12:00;82.32;;;20.95;;
47749;SDS011;49810;48.160;10.812;2022-11-14T02:14:49;92.75;;;21.40;;
47749;SDS011;49810;48.160;10.812;2022-11-14T02:17:40;92.22;;;20.98;;
47749;SDS011;49810;48.160;10.812;2022-11-14T02:20:32;81.30;;;20.92;;
47749;SDS011;49810;48.160;10.812;2022-11-14T02:23:24;74.72;;;20.38;;
47749;SDS011;49810;48.160;10.812;2022-11-14T02:26:12;85.97;;;20.50;;
47749;SDS011;49810;48.160;10.812;2022-11-14T02:29:03;68.00;;;19.13;;
47749;SDS011;49810;48.160;10.812;2022-11-14T02:31:51;64.10;;;20.17;;
47749;SDS011;49810;48.160;10.812;2022-11-14T02:34:38;50.92;;;18.52;;
47749;SDS011;49810;48.160;10.812;2022-11-14T02:37:26;82.03;;;20.35;;
47749;SDS011;49810;48.160;10.812;2022-11-14T02:40:13;52.58;;;19.08;;
47749;SDS011;49810;48.160;10.812;2022-11-14T02:42:59;54.50;;;18.45;;
47749;SDS011;49810;48.160;10.812;2022-11-14T02:45:46;45.22;;;17.90;;
47749;SDS011;49810;48.160;10.812;2022-11-14T02:48:33;26.92;;;16.30;;
47749;SDS011;49810;48.160;10.812;2022-11-14T02:51:19;27.25;;;15.10;;
47749;SDS011;49810;48.160;10.812;2022-11-14T02:54:08;28.75;;;15.70;;
47749;SDS011;49810;48.160;10.812;2022-11-14T02:56:54;22.25;;;13.80;;
47749;SDS011;49810;48.160;10.812;2022-11-14T02:59:41;15.52;;;10.98;;
47749;SDS011;49810;48.160;10.812;2022-11-14T03:02:27;14.30;;;11.00;;
47749;SDS011;49810;48.160;10.812;2022-11-14T03:05:14;13.98;;;9.68;;
47749;SDS011;49810;48.160;10.812;2022-11-14T03:08:01;13.27;;;9.43;;
47749;SDS011;49810;48.160;10.812;2022-11-14T03:10:49;12.05;;;9.05;;
47749;SDS011;49810;48.160;10.812;2022-11-14T03:13:35;11.63;;;9.02;;
47749;SDS011;49810;48.160;10.812;2022-11-14T03:16:22;12.25;;;8.90;;
47749;SDS011;49810;48.160;10.812;2022-11-14T03:19:09;12.85;;;9.07;;
47749;SDS011;49810;48.160;10.812;2022-11-14T03:21:56;12.57;;;8.98;;
47749;SDS011;49810;48.160;10.812;2022-11-14T03:24:44;12.70;;;9.40;;
47749;SDS011;49810;48.160;10.812;2022-11-14T03:27:31;13.25;;;9.43;;
47749;SDS011;49810;48.160;10.812;2022-11-14T03:30:18;12.80;;;9.57;;
47749;SDS011;49810;48.160;10.812;2022-11-14T03:33:05;14.18;;;10.43;;
47749;SDS011;49810;48.160;10.812;2022-11-14T03:35:52;15.30;;;11.15;;
47749;SDS011;49810;48.160;10.812;2022-11-14T03:38:39;16.80;;;11.48;;
47749;SDS011;49810;48.160;10.812;2022-11-14T03:41:28;16.85;;;11.25;;
47749;SDS011;49810;48.160;10.812;2022-11-14T03:44:17;14.65;;;10.55;;
47749;SDS011;49810;48.160;10.812;2022-11-14T03:47:04;16.67;;;11.80;;
47749;SDS011;49810;48.160;10.812;2022-11-14T03:49:51;18.25;;;12.00;;
47749;SDS011;49810;48.160;10.812;2022-11-14T03:52:38;16.88;;;12.20;;
47749;SDS011;49810;48.160;10.812;2022-11-14T03:55:24;18.65;;;12.95;;
47749;SDS011;49810;48.160;10.812;2022-11-14T03:58:11;17.25;;;12.52;;
47749;SDS011;49810;48.160;10.812;2022-11-14T04:00:59;19.40;;;13.07;;
47749;SDS011;49810;48.160;10.812;2022-11-14T04:03:48;19.88;;;12.88;;
47749;SDS011;49810;48.160;10.812;2022-11-14T04:06:34;16.95;;;12.23;;
47749;SDS011;49810;48.160;10.812;2022-11-14T04:09:21;15.88;;;11.45;;
47749;SDS011;49810;48.160;10.812;2022-11-14T04:12:08;12.48;;;9.15;;
47749;SDS011;49810;48.160;10.812;2022-11-14T04:15:00;13.40;;;9.27;;
47749;SDS011;49810;48.160;10.812;2022-11-14T04:17:48;11.20;;;8.20;;
47749;SDS011;49810;48.160;10.812;2022-11-14T04:20:34;11.18;;;8.23;;
47749;SDS011;49810;48.160;10.812;2022-11-14T04:23:21;11.75;;;8.68;;
47749;SDS011;49810;48.160;10.812;2022-11-14T04:26:07;10.98;;;7.93;;
47749;SDS011;49810;48.160;10.812;2022-11-14T04:28:54;6.72;;;5.35;;
47749;SDS011;49810;48.160;10.812;2022-11-14T04:31:41;9.35;;;6.65;;
47749;SDS011;49810;48.160;10.812;2022-11-14T04:34:30;9.20;;;6.55;;
47749;SDS011;49810;48.160;10.812;2022-11-14T04:37:16;9.60;;;6.20;;
47749;SDS011;49810;48.160;10.812;2022-11-14T04:40:03;9.27;;;6.63;;
47749;SDS011;49810;48.160;10.812;2022-11-14T04:42:51;9.30;;;6.88;;
47749;SDS011;49810;48.160;10.812;2022-11-14T04:45:37;10.13;;;7.90;;
47749;SDS011;49810;48.160;10.812;2022-11-14T04:48:24;8.80;;;6.50;;
47749;SDS011;49810;48.160;10.812;2022-11-14T04:51:12;6.97;;;5.70;;
47749;SDS011;49810;48.160;10.812;2022-11-14T04:53:59;7.95;;;6.43;;
47749;SDS011;49810;48.160;10.812;2022-11-14T04:56:46;10.68;;;6.88;;
47749;SDS011;49810;48.160;10.812;2022-11-14T04:59:33;8.32;;;6.32;;
47749;SDS011;49810;48.160;10.812;2022-11-14T05:02:20;7.55;;;6.07;;
47749;SDS011;49810;48.160;10.812;2022-11-14T05:05:07;8.32;;;6.25;;
47749;SDS011;49810;48.160;10.812;2022-11-14T05:07:55;8.80;;;6.43;;
47749;SDS011;49810;48.160;10.812;2022-11-14T05:10:43;11.77;;;8.55;;
47749;SDS011;49810;48.160;10.812;2022-11-14T05:13:30;12.00;;;9.30;;
47749;SDS011;49810;48.160;10.812;2022-11-14T05:16:17;12.15;;;9.25;;
47749;SDS011;49810;48.160;10.812;2022-11-14T05:19:04;12.45;;;8.63;;
47749;SDS011;49810;48.160;10.812;2022-11-14T05:21:50;13.48;;;10.15;;
47749;SDS011;49810;48.160;10.812;2022-11-14T05:24:38;15.57;;;11.32;;
47749;SDS011;49810;48.160;10.812;2022-11-14T05:27:25;15.48;;;11.77;;
47749;SDS011;49810;48.160;10.812;2022-11-14T05:30:12;17.30;;;11.98;;
47749;SDS011;49810;48.160;10.812;2022-11-14T05:32:58;17.40;;;11.88;;
47749;SDS011;49810;48.160;10.812;2022-11-14T05:35:45;17.45;;;12.13;;
47749;SDS011;49810;48.160;10.812;2022-11-14T05:38:32;19.50;;;13.57;;
47749;SDS011;49810;48.160;10.812;2022-11-14T05:41:20;19.10;;;12.20;;
47749;SDS011;49810;48.160;10.812;2022-11-14T05:44:07;20.48;;;13.45;;
47749;SDS011;49810;48.160;10.812;2022-11-14T05:46:53;22.63;;;13.77;;
47749;SDS011;49810;48.160;10.812;2022-11-14T05:49:40;19.40;;;13.35;;
47749;SDS011;49810;48.160;10.812;2022-11-14T05:52:27;36.92;;;22.17;;
47749;SDS011;49810;48.160;10.812;2022-11-14T05:55:16;17.52;;;12.45;;
47749;SDS011;49810;48.160;10.812;2022-11-14T05:58:10;18.10;;;12.95;;
47749;SDS011;49810;48.160;10.812;2022-11-14T06:01:00;15.20;;;11.40;;
47749;SDS011;49810;48.160;10.812;2022-11-14T06:03:47;16.60;;;11.75;;
47749;SDS011;49810;48.160;10.812;2022-11-14T06:06:34;16.75;;;12.30;;
47749;SDS011;49810;48.160;10.812;2022-11-14T06:09:21;17.58;;;12.63;;
47749;SDS011;49810;48.160;10.812;2022-11-14T06:12:08;19.50;;;13.85;;
47749;SDS011;49810;48.160;10.812;2022-11-14T06:14:56;22.75;;;15.90;;
47749;SDS011;49810;48.160;10.812;2022-11-14T06:17:42;20.23;;;13.70;;
47749;SDS011;49810;48.160;10.812;2022-11-14T06:20:29;21.48;;;14.77;;
47749;SDS011;49810;48.160;10.812;2022-11-14T06:23:16;20.90;;;14.50;;
47749;SDS011;49810;48.160;10.812;2022-11-14T06:26:11;22.50;;;14.20;;
47749;SDS011;49810;48.160;10.812;2022-11-14T06:29:05;23.90;;;15.45;;
47749;SDS011;49810;48.160;10.812;2022-11-14T06:31:53;24.55;;;15.20;;
47749;SDS011;49810;48.160;10.812;2022-11-14T06:34:40;22.13;;;14.93;;
47749;SDS011;49810;48.160;10.812;2022-11-14T06:37:27;21.85;;;14.02;;
47749;SDS011;49810;48.160;10.812;2022-11-14T06:40:18;27.70;;;18.40;;
47749;SDS011;49810;48.160;10.812;2022-11-14T06:43:05;31.65;;;20.15;;
47749;SDS011;49810;48.160;10.812;2022-11-14T06:45:52;21.27;;;15.18;;
47749;SDS011;49810;48.160;10.812;2022-11-14T06:48:43;21.85;;;15.18;;
47749;SDS011;49810;48.160;10.812;2022-11-14T06:51:30;24.20;;;16.95;;
47749;SDS011;49810;48.160;10.812;2022-11-14T06:54:17;23.92;;;16.73;;
47749;SDS011;49810;48.160;10.812;2022-11-14T06:57:07;27.02;;;18.67;;
47749;SDS011;49810;48.160;10.812;2022-11-14T06:59:54;27.77;;;18.90;;
47749;SDS011;49810;48.160;10.812;2022-11-14T07:02:44;34.78;;;23.92;;
47749;SDS011;49810;48.160;10.812;2022-11-14T07:05:34;36.67;;;23.02;;
47749;SDS011;49810;48.160;10.812;2022-11-14T07:08:20;28.85;;;19.45;;
47749;SDS011;49810;48.160;10.812;2022-11-14T07:11:08;28.35;;;17.55;;
47749;SDS011;49810;48.160;10.812;2022-11-14T07:13:57;21.98;;;15.07;;
47749;SDS011;49810;48.160;10.812;2022-11-14T07:16:44;20.73;;;14.15;;
47749;SDS011;49810;48.160;10.812;2022-11-14T07:19:30;19.50;;;13.48;;
47749;SDS011;49810;48.160;10.812;2022-11-14T07:22:20;20.60;;;12.27;;
47749;SDS011;49810;48.160;10.812;2022-11-14T07:25:07;17.17;;;12.00;;
47749;SDS011;49810;48.160;10.812;2022-11-14T07:27:55;17.00;;;11.95;;
47749;SDS011;49810;48.160;10.812;2022-11-14T07:30:42;15.57;;;10.80;;
47749;SDS011;49810;48.160;10.812;2022-11-14T07:33:29;16.85;;;11.30;;
47749;SDS011;49810;48.160;10.812;2022-11-14T07:36:17;16.15;;;10.73;;
47749;SDS011;49810;48.160;10.812;2022-11-14T07:39:05;13.00;;;9.20;;
47749;SDS011;49810;48.160;10.812;2022-11-14T07:41:52;47.53;;;30.88;;
47749;SDS011;49810;48.160;10.812;2022-11-14T07:44:40;15.88;;;9.95;;
47749;SDS011;49810;48.160;10.812;2022-11-14T07:47:26;18.23;;;12.48;;
47749;SDS011;49810;48.160;10.812;2022-11-14T07:50:13;20.10;;;12.05;;
47749;SDS011;49810;48.160;10.812;2022-11-14T07:53:05;18.75;;;11.15;;
47749;SDS011;49810;48.160;10.812;2022-11-14T07:55:53;14.20;;;10.23;;
47749;SDS011;49810;48.160;10.812;2022-11-14T07:58:40;14.18;;;8.95;;
47749;SDS011;49810;48.160;10.812;2022-11-14T08:01:28;15.63;;;9.43;;
47749;SDS011;49810;48.160;10.812;2022-11-14T08:04:15;13.90;;;7.38;;
47749;SDS011;49810;48.160;10.812;2022-11-14T08:07:02;10.63;;;7.70;;
47749;SDS011;49810;48.160;10.812;2022-11-14T08:09:48;12.88;;;8.75;;
47749;SDS011;49810;48.160;10.812;2022-11-14T08:12:36;11.82;;;8.13;;
47749;SDS011;49810;48.160;10.812;2022-11-14T08:15:24;9.93;;;6.80;;
47749;SDS011;49810;48.160;10.812;2022-11-14T08:18:11;8.80;;;6.28;;
47749;SDS011;49810;48.160;10.812;2022-11-14T08:20:58;13.52;;;8.50;;
47749;SDS011;49810;48.160;10.812;2022-11-14T08:23:48;15.05;;;8.43;;
47749;SDS011;49810;48.160;10.812;2022-11-14T08:26:36;11.85;;;7.75;;
47749;SDS011;49810;48.160;10.812;2022-11-14T08:29:28;10.95;;;7.28;;
47749;SDS011;49810;48.160;10.812;2022-11-14T08:32:15;17.80;;;7.72;;
47749;SDS011;49810;48.160;10.812;2022-11-14T08:35:04;11.43;;;7.95;;
47749;SDS011;49810;48.160;10.812;2022-11-14T08:37:52;14.18;;;7.80;;
47749;SDS011;49810;48.160;10.812;2022-11-14T08:40:38;11.77;;;8.30;;
47749;SDS011;49810;48.160;10.812;2022-11-14T08:43:25;10.73;;;7.40;;
47749;SDS011;49810;48.160;10.812;2022-11-14T08:46:13;10.82;;;7.35;;
47749;SDS011;49810;48.160;10.812;2022-11-14T08:49:00;14.77;;;7.22;;
47749;SDS011;49810;48.160;10.812;2022-11-14T08:51:50;13.27;;;7.43;;
47749;SDS011;49810;48.160;10.812;2022-11-14T08:54:41;9.95;;;7.55;;
47749;SDS011;49810;48.160;10.812;2022-11-14T08:57:27;13.68;;;7.50;;
47749;SDS011;49810;48.160;10.812;2022-11-14T09:00:14;11.18;;;6.95;;
47749;SDS011;49810;48.160;10.812;2022-11-14T09:03:07;10.10;;;7.65;;
47749;SDS011;49810;48.160;10.812;2022-11-14T09:05:54;9.40;;;7.07;;
47749;SDS011;49810;48.160;10.812;2022-11-14T09:08:41;10.98;;;7.18;;
47749;SDS011;49810;48.160;10.812;2022-11-14T09:11:28;13.95;;;8.52;;
47749;SDS011;49810;48.160;10.812;2022-11-14T09:14:15;17.75;;;11.32;;
47749;SDS011;49810;48.160;10.812;2022-11-14T09:17:02;17.77;;;11.18;;
47749;SDS011;49810;48.160;10.812;2022-11-14T09:19:51;9.80;;;7.03;;
47749;SDS011;49810;48.160;10.812;2022-11-14T09:22:38;14.30;;;8.98;;
47749;SDS011;49810;48.160;10.812;2022-11-14T09:25:27;15.23;;;9.88;;
47749;SDS011;49810;48.160;10.812;2022-11-14T09:28:14;12.02;;;7.13;;
47749;SDS011;49810;48.160;10.812;2022-11-14T09:31:01;10.07;;;6.47;;
47749;SDS011;49810;48.160;10.812;2022-11-14T09:33:51;12.02;;;7.25;;
47749;SDS011;49810;48.160;10.812;2022-11-14T09:36:39;10.23;;;7.28;;
47749;SDS011;49810;48.160;10.812;2022-11-14T09:39:29;10.38;;;6.50;;
47749;SDS011;49810;48.160;10.812;2022-11-14T09:42:19;8.43;;;5.97;;
47749;SDS011;49810;48.160;10.812;2022-11-14T09:45:14;8.57;;;5.60;;
47749;SDS011;49810;48.160;10.812;2022-11-14T09:48:03;8.23;;;5.55;;
47749;SDS011;49810;48.160;10.812;2022-11-14T09:51:01;7.85;;;6.15;;
47749;SDS011;49810;48.160;10.812;2022-11-14T09:53:55;7.63;;;5.88;;
47749;SDS011;49810;48.160;10.812;2022-11-14T09:56:50;8.55;;;5.82;;
47749;SDS011;49810;48.160;10.812;2022-11-14T09:59:37;7.40;;;5.68;;
47749;SDS011;49810;48.160;10.812;2022-11-14T10:02:32;8.02;;;5.60;;
47749;SDS011;49810;48.160;10.812;2022-11-14T10:05:32;10.93;;;5.90;;
47749;SDS011;49810;48.160;10.812;2022-11-14T10:11:37;10.25;;;5.88;;
47749;SDS011;49810;48.160;10.812;2022-11-14T10:14:35;9.02;;;5.97;;
47749;SDS011;49810;48.160;10.812;2022-11-14T10:17:48;12.85;;;6.40;;
47749;SDS011;49810;48.160;10.812;2022-11-14T10:20:47;9.38;;;6.30;;
47749;SDS011;49810;48.160;10.812;2022-11-14T10:23:40;8.90;;;6.50;;
47749;SDS011;49810;48.160;10.812;2022-11-14T10:26:36;9.30;;;6.00;;
47749;SDS011;49810;48.160;10.812;2022-11-14T10:29:45;10.40;;;6.90;;
47749;SDS011;49810;48.160;10.812;2022-11-14T10:32:45;10.13;;;5.90;;
47749;SDS011;49810;48.160;10.812;2022-11-14T10:35:52;9.70;;;6.07;;
47749;SDS011;49810;48.160;10.812;2022-11-14T10:38:45;8.70;;;6.05;;
47749;SDS011;49810;48.160;10.812;2022-11-14T10:41:40;8.68;;;6.15;;
47749;SDS011;49810;48.160;10.812;2022-11-14T10:44:50;9.63;;;6.78;;
47749;SDS011;49810;48.160;10.812;2022-11-14T10:47:48;10.77;;;7.43;;
47749;SDS011;49810;48.160;10.812;2022-11-14T10:50:40;8.38;;;6.60;;
47749;SDS011;49810;48.160;10.812;2022-11-14T10:53:35;9.88;;;7.65;;
47749;SDS011;49810;48.160;10.812;2022-11-14T10:56:28;15.07;;;7.97;;
47749;SDS011;49810;48.160;10.812;2022-11-14T10:59:17;8.63;;;6.82;;
47749;SDS011;49810;48.160;10.812;2022-11-14T11:02:05;12.45;;;8.48;;
47749;SDS011;49810;48.160;10.812;2022-11-14T11:04:52;9.45;;;7.47;;
47749;SDS011;49810;48.160;10.812;2022-11-14T11:07:43;10.00;;;7.50;;
47749;SDS011;49810;48.160;10.812;2022-11-14T11:11:10;9.50;;;6.80;;
47749;SDS011;49810;48.160;10.812;2022-11-14T11:14:17;13.52;;;7.28;;
47749;SDS011;49810;48.160;10.812;2022-11-14T11:20:29;10.43;;;7.10;;
47749;SDS011;49810;48.160;10.812;2022-11-14T11:23:19;11.57;;;7.32;;
47749;SDS011;49810;48.160;10.812;2022-11-14T11:26:14;11.30;;;6.93;;
47749;SDS011;49810;48.160;10.812;2022-11-14T11:29:04;10.18;;;6.35;;
47749;SDS011;49810;48.160;10.812;2022-11-14T11:31:55;7.70;;;5.80;;
47749;SDS011;49810;48.160;10.812;2022-11-14T11:34:43;10.55;;;6.22;;
47749;SDS011;49810;48.160;10.812;2022-11-14T11:37:32;8.02;;;5.55;;
47749;SDS011;49810;48.160;10.812;2022-11-14T11:40:26;10.55;;;6.30;;
47749;SDS011;49810;48.160;10.812;2022-11-14T11:43:16;7.85;;;5.00;;
47749;SDS011;49810;48.160;10.812;2022-11-14T11:46:30;7.68;;;5.10;;
47749;SDS011;49810;48.160;10.812;2022-11-14T11:49:27;8.70;;;5.03;;
47749;SDS011;49810;48.160;10.812;2022-11-14T11:52:25;8.15;;;5.32;;
47749;SDS011;49810;48.160;10.812;2022-11-14T11:55:17;7.55;;;5.10;;
47749;SDS011;49810;48.160;10.812;2022-11-14T11:58:09;10.13;;;5.78;;
47749;SDS011;49810;48.160;10.812;2022-11-14T12:01:02;11.50;;;7.00;;
47749;SDS011;49810;48.160;10.812;2022-11-14T12:03:50;10.80;;;6.68;;
47749;SDS011;49810;48.160;10.812;2022-11-14T12:06:40;5.57;;;3.22;;
47749;SDS011;49810;48.160;10.812;2022-11-14T12:09:32;3.85;;;2.35;;
47749;SDS011;49810;48.160;10.812;2022-11-14T12:16:14;3.67;;;2.20;;
47749;SDS011;49810;48.160;10.812;2022-11-14T12:19:29;3.53;;;1.92;;
47749;SDS011;49810;48.160;10.812;2022-11-14T12:22:34;3.80;;;1.92;;
47749;SDS011;49810;48.160;10.812;2022-11-14T12:25:35;4.03;;;2.17;;
47749;SDS011;49810;48.160;10.812;2022-11-14T12:28:33;3.15;;;2.00;;
47749;SDS011;49810;48.160;10.812;2022-11-14T12:31:43;3.95;;;2.00;;
47749;SDS011;49810;48.160;10.812;2022-11-14T12:34:32;5.10;;;2.90;;
47749;SDS011;49810;48.160;10.812;2022-11-14T12:37:26;30.17;;;18.80;;
47749;SDS011;49810;48.160;10.812;2022-11-14T12:40:26;3.78;;;2.00;;
47749;SDS011;49810;48.160;10.812;2022-11-14T12:43:25;3.47;;;2.00;;
47749;SDS011;49810;48.160;10.812;2022-11-14T12:46:21;4.90;;;2.58;;
47749;SDS011;49810;48.160;10.812;2022-11-14T12:52:41;4.30;;;2.38;;
47749;SDS011;49810;48.160;10.812;2022-11-14T13:05:29;3.90;;;2.55;;
47749;SDS011;49810;48.160;10.812;2022-11-14T13:08:37;5.05;;;2.45;;
47749;SDS011;49810;48.160;10.812;2022-11-14T13:11:39;5.47;;;3.17;;
47749;SDS011;49810;48.160;10.812;2022-11-14T13:14:48;4.90;;;3.05;;
47749;SDS011;49810;48.160;10.812;2022-11-14T13:18:09;4.35;;;2.45;;
47749;SDS011;49810;48.160;10.812;2022-11-14T13:21:22;4.13;;;2.60;;
47749;SDS011;49810;48.160;10.812;2022-11-14T13:31:05;5.03;;;3.38;;
47749;SDS011;49810;48.160;10.812;2022-11-14T13:37:20;7.97;;;4.20;;
47749;SDS011;49810;48.160;10.812;2022-11-14T13:40:22;6.95;;;4.55;;
47749;SDS011;49810;48.160;10.812;2022-11-14T13:43:20;6.60;;;4.35;;
47749;SDS011;49810;48.160;10.812;2022-11-14T13:46:18;8.65;;;4.70;;
47749;SDS011;49810;48.160;10.812;2022-11-14T13:49:22;8.57;;;5.32;;
47749;SDS011;49810;48.160;10.812;2022-11-14T13:52:20;6.28;;;4.35;;
47749;SDS011;49810;48.160;10.812;2022-11-14T13:55:20;7.18;;;4.20;;
47749;SDS011;49810;48.160;10.812;2022-11-14T13:58:12;8.77;;;4.18;;
47749;SDS011;49810;48.160;10.812;2022-11-14T14:01:14;10.10;;;4.65;;
47749;SDS011;49810;48.160;10.812;2022-11-14T14:04:16;7.15;;;5.05;;
47749;SDS011;49810;48.160;10.812;2022-11-14T14:07:16;9.73;;;5.57;;
47749;SDS011;49810;48.160;10.812;2022-11-14T14:10:17;9.30;;;5.00;;
47749;SDS011;49810;48.160;10.812;2022-11-14T14:13:15;6.45;;;4.13;;
47749;SDS011;49810;48.160;10.812;2022-11-14T14:16:14;5.93;;;3.95;;
47749;SDS011;49810;48.160;10.812;2022-11-14T14:19:07;6.10;;;3.55;;
47749;SDS011;49810;48.160;10.812;2022-11-14T14:22:10;6.65;;;3.10;;
47749;SDS011;49810;48.160;10.812;2022-11-14T14:25:08;5.65;;;3.00;;
47749;SDS011;49810;48.160;10.812;2022-11-14T14:28:06;7.63;;;3.25;;
47749;SDS011;49810;48.160;10.812;2022-11-14T14:31:01;6.47;;;3.50;;
47749;SDS011;49810;48.160;10.812;2022-11-14T14:33:56;6.78;;;4.40;;
47749;SDS011;49810;48.160;10.812;2022-11-14T14:36:47;8.23;;;4.20;;
47749;SDS011;49810;48.160;10.812;2022-11-14T14:39:35;6.78;;;4.18;;
47749;SDS011;49810;48.160;10.812;2022-11-14T14:42:22;5.80;;;3.70;;
47749;SDS011;49810;48.160;10.812;2022-11-14T14:45:19;7.72;;;4.38;;
47749;SDS011;49810;48.160;10.812;2022-11-14T14:48:11;7.47;;;4.43;;
47749;SDS011;49810;48.160;10.812;2022-11-14T14:51:01;7.65;;;4.10;;
47749;SDS011;49810;48.160;10.812;2022-11-14T14:53:50;7.03;;;4.20;;
47749;SDS011;49810;48.160;10.812;2022-11-14T14:56:38;7.00;;;3.88;;
47749;SDS011;49810;48.160;10.812;2022-11-14T14:59:26;7.95;;;3.95;;
47749;SDS011;49810;48.160;10.812;2022-11-14T15:02:14;6.65;;;4.25;;
47749;SDS011;49810;48.160;10.812;2022-11-14T15:05:02;8.07;;;4.53;;
47749;SDS011;49810;48.160;10.812;2022-11-14T15:07:52;8.98;;;4.97;;
47749;SDS011;49810;48.160;10.812;2022-11-14T15:10:43;11.43;;;6.03;;
47749;SDS011;49810;48.160;10.812;2022-11-14T15:13:30;12.65;;;4.88;;
47749;SDS011;49810;48.160;10.812;2022-11-14T15:16:19;10.70;;;4.65;;
47749;SDS011;49810;48.160;10.812;2022-11-14T15:19:08;9.23;;;5.85;;
47749;SDS011;49810;48.160;10.812;2022-11-14T15:22:02;9.82;;;6.22;;
47749;SDS011;49810;48.160;10.812;2022-11-14T15:25:04;10.85;;;6.90;;
47749;SDS011;49810;48.160;10.812;2022-11-14T15:27:52;12.88;;;6.93;;
47749;SDS011;49810;48.160;10.812;2022-11-14T15:30:53;12.05;;;7.50;;
47749;SDS011;49810;48.160;10.812;2022-11-14T15:33:43;12.10;;;7.72;;
47749;SDS011;49810;48.160;10.812;2022-11-14T15:36:29;11.73;;;7.57;;
47749;SDS011;49810;48.160;10.812;2022-11-14T15:39:21;11.63;;;7.28;;
47749;SDS011;49810;48.160;10.812;2022-11-14T15:42:13;10.13;;;6.93;;
47749;SDS011;49810;48.160;10.812;2022-11-14T15:48:10;9.37;;;6.23;;
47749;SDS011;49810;48.160;10.812;2022-11-14T15:51:00;15.40;;;8.60;;
47749;SDS011;49810;48.160;10.812;2022-11-14T15:53:47;11.75;;;7.68;;
47749;SDS011;49810;48.160;10.812;2022-11-14T15:56:37;10.98;;;6.45;;
47749;SDS011;49810;48.160;10.812;2022-11-14T15:59:26;12.80;;;6.57;;
47749;SDS011;49810;48.160;10.812;2022-11-14T16:02:15;15.10;;;7.35;;
47749;SDS011;49810;48.160;10.812;2022-11-14T16:05:05;16.05;;;6.22;;
47749;SDS011;49810;48.160;10.812;2022-11-14T16:07:53;10.50;;;6.18;;
47749;SDS011;49810;48.160;10.812;2022-11-14T16:10:40;18.20;;;10.95;;
47749;SDS011;49810;48.160;10.812;2022-11-14T16:13:27;10.55;;;5.18;;
47749;SDS011;49810;48.160;10.812;2022-11-14T16:16:15;8.38;;;4.72;;
47749;SDS011;49810;48.160;10.812;2022-11-14T16:19:13;14.85;;;7.32;;
47749;SDS011;49810;48.160;10.812;2022-11-14T16:22:01;11.10;;;7.45;;
47749;SDS011;49810;48.160;10.812;2022-11-14T16:24:49;16.05;;;6.90;;
47749;SDS011;49810;48.160;10.812;2022-11-14T16:27:35;10.57;;;5.95;;
47749;SDS011;49810;48.160;10.812;2022-11-14T16:30:23;22.20;;;13.52;;
47749;SDS011;49810;48.160;10.812;2022-11-14T16:33:12;18.02;;;9.73;;
47749;SDS011;49810;48.160;10.812;2022-11-14T16:35:59;12.27;;;8.02;;
47749;SDS011;49810;48.160;10.812;2022-11-14T16:38:46;13.15;;;8.43;;
47749;SDS011;49810;48.160;10.812;2022-11-14T16:41:37;16.88;;;8.40;;
47749;SDS011;49810;48.160;10.812;2022-11-14T16:44:30;11.70;;;8.05;;
47749;SDS011;49810;48.160;10.812;2022-11-14T16:47:26;12.18;;;8.00;;
47749;SDS011;49810;48.160;10.812;2022-11-14T16:50:14;16.23;;;7.97;;
47749;SDS011;49810;48.160;10.812;2022-11-14T16:53:01;14.02;;;8.57;;
47749;SDS011;49810;48.160;10.812;2022-11-14T16:55:48;13.52;;;8.55;;
47749;SDS011;49810;48.160;10.812;2022-11-14T16:58:35;13.52;;;8.60;;
47749;SDS011;49810;48.160;10.812;2022-11-14T17:01:23;13.07;;;7.65;;
47749;SDS011;49810;48.160;10.812;2022-11-14T17:04:10;14.05;;;9.15;;
47749;SDS011;49810;48.160;10.812;2022-11-14T17:06:58;15.55;;;9.13;;
47749;SDS011;49810;48.160;10.812;2022-11-14T17:09:45;16.80;;;9.45;;
47749;SDS011;49810;48.160;10.812;2022-11-14T17:12:32;15.35;;;10.55;;